Euskara    
Meteorología y climatología de Navarra
Datos de la estación - Meteo Navarra

Estación de Arangoiti GN

Altitud 1353 m.


Datos desde el 22/11/2020 hasta el 23/11/2020 en horario solar
Los datos son PROVISIONALES

Anterior Página 1 de 1 Siguiente Descargar: Formato para Excel 2000 o superior   Formato csv   Formato para OpenOffice Calc
Fecha Temperatura Humedad relativa Radiación global Insolación Precipitación Vel. viento 10 m Vel. viento 10 m Dir. viento 10 m
°C % W/m² s l/m² m/s km/h °
22/11/2020 0:00 5.9 39 0.0 0 0.0 7.1 25.4 167
22/11/2020 0:10 5.9 51 0.0 0 0.0 6.9 24.7 167
22/11/2020 0:20 6.2 29 0.0 0 0.0 7.6 27.3 168
22/11/2020 0:30 6.6 26 0.0 0 0.0 7.4 26.5 167
22/11/2020 0:40 6.3 38 0.0 0 0.0 7.3 26.2 166
22/11/2020 0:50 6.0 40 0.0 0 0.0 7.0 25.1 166
22/11/2020 1:00 5.5 42 0.0 0 0.0 7.3 26.4 165
22/11/2020 1:10 5.2 43 0.0 0 0.0 7.4 26.7 169
22/11/2020 1:20 5.3 41 0.0 0 0.0 6.7 24.1 172
22/11/2020 1:30 5.1 44 0.0 0 0.0 6.1 22.0 175
22/11/2020 1:40 6.1 32 0.0 0 0.0 7.4 26.8 175
22/11/2020 1:50 6.3 29 0.0 0 0.0 7.1 25.5 174
22/11/2020 2:00 6.1 29 0.0 0 0.0 7.4 26.5 175
22/11/2020 2:10 6.1 28 0.0 0 0.0 7.0 25.3 175
22/11/2020 2:20 5.9 29 0.0 0 0.0 7.2 25.8 175
22/11/2020 2:30 5.8 29 0.0 0 0.0 7.4 26.8 174
22/11/2020 2:40 6.3 27 0.0 0 0.0 7.4 26.7 176
22/11/2020 2:50 6.2 26 0.0 0 0.0 7.2 25.8 177
22/11/2020 3:00 6.1 27 0.0 0 0.0 6.9 24.8 175
22/11/2020 3:10 5.8 27 0.0 0 0.0 7.2 26.1 179
22/11/2020 3:20 6.3 24 0.0 0 0.0 6.3 22.6 181
22/11/2020 3:30 6.5 24 0.0 0 0.0 5.5 19.9 183
22/11/2020 3:40 6.3 23 0.0 0 0.0 5.5 19.9 186
22/11/2020 3:50 6.5 26 0.0 0 0.0 5.6 20.0 192
22/11/2020 4:00 6.4 25 0.0 0 0.0 5.3 19.1 191
22/11/2020 4:10 6.3 25 0.0 0 0.0 5.2 18.6 195
22/11/2020 4:20 6.5 31 0.0 0 0.0 5.0 18.1 200
22/11/2020 4:30 6.2 24 0.0 0 0.0 4.8 17.2 193
22/11/2020 4:40 6.6 32 0.0 0 0.0 5.0 18.1 205
22/11/2020 4:50 6.9 34 0.0 0 0.0 5.2 18.5 211
22/11/2020 5:00 7.0 33 0.0 0 0.0 5.3 19.0 207
22/11/2020 5:10 6.8 34 0.0 0 0.0 5.8 20.7 204
22/11/2020 5:20 7.0 35 0.0 0 0.0 6.1 22.1 201
22/11/2020 5:30 6.8 36 0.0 0 0.0 5.3 19.0 199
22/11/2020 5:40 6.8 33 0.0 0 0.0 4.3 15.6 197
22/11/2020 5:50 6.8 30 0.0 0 0.0 4.3 15.6 196
22/11/2020 6:00 6.9 35 0.0 0 0.0 4.6 16.5 196
22/11/2020 6:10 6.8 36 0.0 0 0.0 4.6 16.5 193
22/11/2020 6:20 6.5 37 0.0 0 0.0 4.3 15.5 192
22/11/2020 6:30 6.5 40 0.0 0 0.0 4.4 15.9 187
22/11/2020 6:40 6.7 39 0.0 0 0.0 4.7 16.9 184
22/11/2020 6:50 6.5 36 0.0 0 0.0 4.8 17.2 183
22/11/2020 7:00 6.9 38 0.0 0 0.0 4.6 16.7 188
22/11/2020 7:10 7.1 37 12.6 0 0.0 4.7 16.7 196
22/11/2020 7:20 7.8 40 26.9 160 0.0 5.0 17.8 201
22/11/2020 7:30 7.7 41 38.2 600 0.0 3.8 13.8 195
22/11/2020 7:40 8.3 39 51.2 600 0.0 2.9 10.6 193
22/11/2020 7:50 9.0 34 78.1 600 0.0 2.6 9.4 193
22/11/2020 8:00 8.9 36 105.0 600 0.0 2.1 7.6 185
22/11/2020 8:10 8.9 34 129.2 600 0.0 2.2 8.0 183
22/11/2020 8:20 9.3 31 85.0 260 0.0 2.4 8.6 182
22/11/2020 8:30 9.7 36 138.5 426 0.0 1.7 6.0 178
22/11/2020 8:40 9.0 34 201.4 600 0.0 2.1 7.6 173
22/11/2020 8:50 10.2 31 225.4 600 0.0 2.0 7.1 175
22/11/2020 9:00 9.3 35 249.5 600 0.0 2.0 7.2 177
22/11/2020 9:10 10.0 34 273.8 600 0.0 1.6 5.8 188
22/11/2020 9:20 9.9 36 296.5 600 0.0 1.3 4.8 182
22/11/2020 9:30 9.7 39 318.7 600 0.0 1.4 4.9 188
22/11/2020 9:40 11.5 35 340.7 600 0.0 1.6 5.6 227
22/11/2020 9:50 11.9 32 359.4 600 0.0 1.1 3.9 214
22/11/2020 10:00 10.9 34 373.7 600 0.0 0.5 1.8 188
22/11/2020 10:10 11.2 33 393.3 600 0.0 0.8 2.7 197
22/11/2020 10:20 12.3 38 409.7 600 0.0 0.8 3.0 213
22/11/2020 10:30 11.2 33 423.5 600 0.0 0.5 1.8 206
22/11/2020 10:40 10.9 29 436.2 600 0.0 0.7 2.6 206
22/11/2020 10:50 10.2 31 446.2 600 0.0 0.7 2.6 286
22/11/2020 11:00 9.7 30 456.2 600 0.0 1.4 5.0 305
22/11/2020 11:10 9.3 36 465.6 600 0.0 1.5 5.5 296
22/11/2020 11:20 9.3 30 472.7 600 0.0 1.2 4.2 299
22/11/2020 11:30 9.6 31 477.4 600 0.0 0.8 2.8 323
22/11/2020 11:40 10.0 31 480.6 600 0.0 0.9 3.1 321
22/11/2020 11:50 10.3 30 481.5 600 0.0 0.4 1.5 338
22/11/2020 12:00 10.4 28 481.6 600 0.0 1.0 3.4 342
22/11/2020 12:10 10.3 33 479.5 600 0.0 0.6 2.1 6
22/11/2020 12:20 10.8 26 475.3 600 0.0 0.4 1.5 352
22/11/2020 12:30 10.5 26 470.5 600 0.0 0.7 2.6 339
22/11/2020 12:40 10.8 29 463.7 600 0.0 0.4 1.5 1
22/11/2020 12:50 10.2 31 456.1 600 0.0 1.1 4.1 357
22/11/2020 13:00 10.3 27 447.0 600 0.0 1.2 4.2 343
22/11/2020 13:10 10.0 29 436.6 600 0.0 1.5 5.5 342
22/11/2020 13:20 9.9 29 424.9 600 0.0 1.8 6.4 349
22/11/2020 13:30 10.0 29 411.0 600 0.0 1.4 5.0 354
22/11/2020 13:40 9.7 28 396.5 600 0.0 2.5 9.0 358
22/11/2020 13:50 9.6 28 380.4 600 0.0 2.5 9.1 1
22/11/2020 14:00 9.3 31 363.1 600 0.0 2.6 9.5 2
22/11/2020 14:10 9.1 30 345.2 600 0.0 2.6 9.4 11
22/11/2020 14:20 9.1 32 321.4 600 0.0 2.7 9.9 9
22/11/2020 14:30 8.4 33 294.5 600 0.0 3.4 12.2 12
22/11/2020 14:40 8.3 35 272.1 600 0.0 3.1 11.2 23
22/11/2020 14:50 8.2 36 246.9 600 0.0 2.9 10.4 27
22/11/2020 15:00 7.9 36 217.8 600 0.0 2.6 9.4 20
22/11/2020 15:10 8.0 36 198.8 600 0.0 2.4 8.7 26
22/11/2020 15:20 7.5 37 165.6 600 0.0 3.0 10.8 21
22/11/2020 15:30 7.8 42 145.3 600 0.0 3.5 12.6 18
22/11/2020 15:40 7.4 43 109.2 600 0.0 4.3 15.3 14
22/11/2020 15:50 7.2 52 91.7 600 0.0 4.9 17.5 12
22/11/2020 16:00 7.5 52 79.2 600 0.0 5.1 18.3 13
22/11/2020 16:10 7.5 49 61.7 600 0.0 4.9 17.8 14
22/11/2020 16:20 7.8 49 36.6 388 0.0 4.3 15.5 15
22/11/2020 16:30 7.1 52 22.1 0 0.0 4.5 16.3 14
22/11/2020 16:40 7.1 53 15.2 0 0.0 4.4 15.7 15
22/11/2020 16:50 7.2 52 0.1 0 0.0 5.2 18.8 15
22/11/2020 17:00 6.8 56 0.0 0 0.0 5.4 19.3 15
22/11/2020 17:10 6.0 61 0.0 0 0.0 5.5 19.6 9
22/11/2020 17:20 6.1 61 0.0 0 0.0 5.9 21.1 5
22/11/2020 17:30 6.4 59 0.0 0 0.0 6.7 24.1 5
22/11/2020 17:40 5.9 62 0.0 0 0.0 7.4 26.5 6
22/11/2020 17:50 6.1 63 0.0 0 0.0 8.0 28.6 7
22/11/2020 18:00 6.1 63 0.0 0 0.0 7.4 26.8 6
22/11/2020 18:10 5.6 64 0.0 0 0.0 7.3 26.4 4
22/11/2020 18:20 5.5 65 0.0 0 0.0 6.4 23.1 3
22/11/2020 18:30 5.9 63 0.0 0 0.0 5.4 19.4 7
22/11/2020 18:40 6.1 60 0.0 0 0.0 5.4 19.3 8
22/11/2020 18:50 6.8 49 0.0 0 0.0 6.2 22.3 11
22/11/2020 19:00 7.0 46 0.0 0 0.0 6.0 21.6 13
22/11/2020 19:10 6.9 54 0.0 0 0.0 4.9 17.6 16
22/11/2020 19:20 6.6 51 0.0 0 0.0 4.0 14.2 19
22/11/2020 19:30 6.7 50 0.0 0 0.0 3.1 11.1 13
22/11/2020 19:40 7.1 45 0.0 0 0.0 3.3 12.0 12
22/11/2020 19:50 5.9 60 0.0 0 0.0 3.1 11.1 1
22/11/2020 20:00 5.6 56 0.0 0 0.0 3.6 13.0 353
22/11/2020 20:10 5.4 53 0.0 0 0.0 6.1 21.8 351
22/11/2020 20:20 5.2 56 0.0 0 0.0 6.1 22.1 352
22/11/2020 20:30 5.4 53 0.0 0 0.0 7.3 26.1 349
22/11/2020 20:40 5.3 54 0.0 0 0.0 7.9 28.5 351
22/11/2020 20:50 5.3 53 0.0 0 0.0 8.1 29.2 354
22/11/2020 21:00 5.2 52 0.0 0 0.0 7.4 26.7 355
22/11/2020 21:10 5.2 52 0.0 0 0.0 7.0 25.3 359
22/11/2020 21:20 5.7 52 0.0 0 0.0 7.5 27.0 1
22/11/2020 21:30 5.2 54 0.0 0 0.0 7.9 28.4 360
22/11/2020 21:40 5.2 51 0.0 0 0.0 8.1 29.2 358
22/11/2020 21:50 5.2 51 0.0 0 0.0 7.8 28.0 355
22/11/2020 22:00 5.2 50 0.0 0 0.0 7.2 26.1 354
22/11/2020 22:10 5.7 49 0.0 0 0.0 7.4 26.5 355
22/11/2020 22:20 5.6 49 0.0 0 0.0 6.6 23.7 0
22/11/2020 22:30 5.7 48 0.0 0 0.0 5.9 21.3 1
22/11/2020 22:40 5.5 48 0.0 0 0.0 5.5 19.6 2
22/11/2020 22:50 5.4 50 0.0 0 0.0 5.8 20.9 0
22/11/2020 23:00 5.0 54 0.0 0 0.0 6.5 23.5 358
22/11/2020 23:10 4.8 56 0.0 0 0.0 6.6 23.7 354
22/11/2020 23:20 4.7 57 0.0 0 0.0 6.7 24.0 350
22/11/2020 23:30 4.9 57 0.0 0 0.0 6.4 23.1 351
22/11/2020 23:40 4.6 58 0.0 0 0.0 6.1 22.0 354
22/11/2020 23:50 4.5 61 0.0 0 0.0 6.1 22.0 354
Anterior Página 1 de 1 Siguiente
Los datos de precipitación registrados en estaciones que están en cumbres son inferiores a lo real, como consecuencia del efecto del viento y de la nieve.


NOTA: Tipo de datos según el color:
   - Valores diarios o 10 minutos correctos
   - Valores diarios calculados a partir de un número de datos 10 minutos menor que 144 y mayor que 120, o de un número de datos semihorarios menor que 48 y mayor que 40 (caso de las estaciones de INTIA Y Ministerio)
   - Valores diez minutos estimados


Contacto        Enlaces        Aviso legal